Bonanza Express — EHYT — position and weather

sailwx.info

Track history (hours):
 
Tides and Currents Weather Stations Pressure Air Temp Water Temp Dewpoint Dewpoint Depression Visibility Wind Speed Wind Dir Waves Ship Positions

Bonanza Express

Last reported at 2018-Jan-23 10:55 UTC. Time now 2018-Jan-23 12:18 UTC.
Position N 28°02' W 014°38'.

Length 96 m; draft 3.4 m.

Type: High speed craft. MMSI: 224768000.

Date/timePositionNaut miles runAvg speedWind from/ knotsBaromVisibWave heightAir tempDewpointWater temp
2018-Jan-23 10:55N 28°02' W 014°38'1024.8
2018-Jan-23 10:30N 28°04' W 014°50'1224.8
2018-Jan-23 10:00N 28°06' W 015°04'1324.9
2018-Jan-23 09:30N 28°07' W 015°18'713.5
2018-Jan-23 09:00N 28°09' W 015°25'0 0.5
2018-Jan-23 08:30N 28°09' W 015°25'918.6
2018-Jan-23 08:00N 28°06' W 015°15'1733.7
2018-Jan-23 07:30N 28°04' W 014°56'9 0.9
2018-Jan-22 21:18N 28°03' W 014°46'929.5
2018-Jan-22 21:00N 28°04' W 014°56'1529.5
2018-Jan-22 20:30N 28°06' W 015°12'1122.8
2018-Jan-22 20:00N 28°08' W 015°25'1 1.2
2018-Jan-22 19:30N 28°09' W 015°25'0 0.0
2018-Jan-22 19:00N 28°09' W 015°25'511.1
2018-Jan-22 18:31N 28°06' W 015°20'1733.9
2018-Jan-22 18:00N 28°03' W 015°01'20 9.1
2018-Jan-22 15:47N 28°02' W 014°38'1035.9
2018-Jan-22 15:30N 28°03' W 014°49'1835.9
2018-Jan-22 15:00N 28°05' W 015°09'1426.0
2018-Jan-22 14:27N 28°09' W 015°25'0 0.1
2018-Jan-22 14:00N 28°09' W 015°25'0 0.0
2018-Jan-22 13:30N 28°09' W 015°25'2 4.0
2018-Jan-22 13:01N 28°07' W 015°24'1835.7
2018-Jan-22 12:30N 28°05' W 015°04'1836.1
2018-Jan-22 12:00N 28°03' W 014°44'1933.3
2018-Jan-22 11:25N 28°03' W 014°22'0 0.1
2018-Jan-22 10:56N 28°03' W 014°22'920.9
2018-Jan-22 10:30N 28°02' W 014°32'1632.5
2018-Jan-22 10:00N 28°03' W 014°50'1632.8
2018-Jan-22 09:30N 28°05' W 015°09'1529.5
2018-Jan-22 09:00N 28°08' W 015°25'1 2.0
2018-Jan-22 08:30N 28°09' W 015°25'4 8.2
2018-Jan-22 08:01N 28°07' W 015°21'1835.4
2018-Jan-22 07:30N 28°04' W 015°01'2035.6
2018-Jan-22 06:56N 28°02' W 014°38'1532.9
2018-Jan-22 06:30N 28°03' W 014°22'0 0.5
2018-Jan-22 06:00N 28°03' W 014°22'0 0.0
2018-Jan-22 05:30N 28°03' W 014°22'0 0.0
2018-Jan-22 05:00N 28°03' W 014°22'0 0.0
2018-Jan-22 04:30N 28°03' W 014°22'0 0.0
2018-Jan-22 03:59N 28°03' W 014°22'0 0.0
2018-Jan-22 03:30N 28°03' W 014°22'0 0.0
2018-Jan-22 03:00N 28°03' W 014°22'0 0.0
2018-Jan-22 02:30N 28°03' W 014°22'0 0.0
2018-Jan-22 02:00N 28°03' W 014°22'0 0.0
2018-Jan-22 01:26N 28°03' W 014°22'0 0.0
2018-Jan-22 01:00N 28°03' W 014°22'0 0.0
2018-Jan-22 00:30N 28°03' W 014°22'0 0.0
2018-Jan-22 00:00N 28°03' W 014°22'0 0.0
2018-Jan-21 23:31N 28°03' W 014°22'0 0.0
2018-Jan-21 23:00N 28°03' W 014°22'0 0.0
2018-Jan-21 22:30N 28°03' W 014°22'1 1.7
2018-Jan-21 22:00N 28°03' W 014°23'1530.3
2018-Jan-21 21:30N 28°03' W 014°40'1530.3
2018-Jan-21 21:01N 28°04' W 014°57'1530.4
2018-Jan-21 20:30N 28°06' W 015°14'1020.3
2018-Jan-21 20:00N 28°09' W 015°25'0 0.0
2018-Jan-21 19:30N 28°09' W 015°25'3 6.2
2018-Jan-21 19:00N 28°07' W 015°23'1835.2
2018-Jan-21 18:30N 28°04' W 015°03'1835.5
2018-Jan-21 18:00N 28°03' W 014°43'1924.4
2018-Jan-21 17:14N 28°03' W 014°22'4 6.5
2018-Jan-21 16:35N 28°03' W 014°26'336.6
2018-Jan-21 16:31N 28°03' W 014°30'1835.5
2018-Jan-21 16:00N 28°04' W 014°50'1835.7
2018-Jan-21 15:30N 28°06' W 015°10'1427.3
2018-Jan-21 15:00N 28°08' W 015°25'1 1.0
2018-Jan-21 14:29N 28°09' W 015°25'917.9
2018-Jan-21 14:00N 28°07' W 015°16'1835.0
2018-Jan-21 13:30N 28°05' W 014°56'1733.3
2018-Jan-21 13:01N 28°02' W 014°38'7 0.5
2018-Jan-20 21:37N 28°02' W 014°29'432.7
2018-Jan-20 21:30N 28°02' W 014°34'1632.2
2018-Jan-20 21:00N 28°04' W 014°52'1632.3
2018-Jan-20 20:30N 28°06' W 015°10'1427.2
2018-Jan-20 20:00N 28°08' W 015°25'1 1.4
2018-Jan-20 19:28N 28°09' W 015°25'0 0.0
2018-Jan-20 19:00N 28°09' W 015°25'0 0.0
2018-Jan-20 18:29N 28°09' W 015°25'714.6
2018-Jan-20 18:01N 28°05' W 015°18'1632.6
2018-Jan-20 17:31N 28°04' W 014°60'14 2.3
2018-Jan-20 11:17N 27°56' W 014°46'931.7
2018-Jan-20 11:00N 27°59' W 014°56'1632.0
2018-Jan-20 10:30N 28°04' W 015°13'1223.6
2018-Jan-20 10:00N 28°09' W 015°25'0 0.2
2018-Jan-20 09:31N 28°09' W 015°25'1019.5
2018-Jan-20 09:01N 28°06' W 015°15'1632.3
2018-Jan-20 08:30N 28°04' W 014°56'9 0.8
2018-Jan-19 21:30N 27°59' W 014°48'1428.0
2018-Jan-19 21:00N 28°02' W 015°03'1428.1
2018-Jan-19 20:30N 28°06' W 015°19'713.1
2018-Jan-19 20:00N 28°09' W 015°25'0 0.0
2018-Jan-19 19:30N 28°09' W 015°25'3 5.8
2018-Jan-19 19:01N 28°07' W 015°23'1530.8
2018-Jan-19 18:30N 28°04' W 015°06'21 7.5
2018-Jan-19 15:45N 28°03' W 014°42'833.9
2018-Jan-19 15:30N 28°04' W 014°51'1733.7
2018-Jan-19 15:00N 28°07' W 015°10'1326.3
2018-Jan-19 14:30N 28°09' W 015°25'0 0.3
2018-Jan-19 13:59N 28°09' W 015°25'1 3.1
2018-Jan-19 13:30N 28°07' W 015°25'1632.7
2018-Jan-19 13:00N 28°03' W 015°07'22 9.4
2018-Jan-19 10:40N 27°57' W 014°43'528.9
2018-Jan-19 10:29N 27°57' W 014°49'1328.4
2018-Jan-19 10:01N 27°60' W 015°03'1529.5
2018-Jan-19 09:30N 28°05' W 015°19'612.2
2018-Jan-19 08:58N 28°09' W 015°25'0 0.3
2018-Jan-19 08:30N 28°09' W 015°25'1121.3
2018-Jan-19 08:00N 28°04' W 015°15'1632.5
2018-Jan-19 07:30N 28°02' W 014°56'11 1.1
2018-Jan-18 21:29N 27°60' W 014°44'1428.8
2018-Jan-18 21:00N 28°02' W 014°60'1529.2
2018-Jan-18 20:31N 28°05' W 015°16'918.3
2018-Jan-18 20:00N 28°09' W 015°25'0 0.0
2018-Jan-18 19:30N 28°09' W 015°25'0 0.0
2018-Jan-18 19:00N 28°09' W 015°25'1 1.5
2018-Jan-18 18:30N 28°08' W 015°25'1225.0
2018-Jan-18 18:00N 28°05' W 015°12'1530.2
2018-Jan-18 17:30N 28°03' W 014°55'16 2.3
2018-Jan-18 10:35N 28°02' W 014°37'334.5
2018-Jan-18 10:30N 28°02' W 014°40'1734.2
2018-Jan-18 10:00N 28°06' W 014°59'1631.7
2018-Jan-18 09:30N 28°08' W 015°17'8 8.2
2018-Jan-18 08:36N 28°09' W 015°25'1 8.7
2018-Jan-18 08:30N 28°08' W 015°25'1428.1
2018-Jan-18 08:00N 28°03' W 015°11'1631.9
2018-Jan-18 07:30N 28°00' W 014°53'  
Track history (hours):
 
Tides and Currents Weather Stations Pressure Air Temp Water Temp Dewpoint Dewpoint Depression Visibility Wind Speed Wind Dir Waves Ship Positions

Bonanza Express

Last reported at 2018-Jan-23 10:55 UTC. Time now 2018-Jan-23 12:18 UTC.
Position N 28°02' W 014°38'.

Length 96 m; draft 3.4 m.

Type: High speed craft. MMSI: 224768000.

Date/timePositionNaut miles runAvg speedWind from/ knotsBaromVisibWave heightAir tempDewpointWater temp
2018-Jan-23 10:55N 28°02' W 014°38'1024.8
2018-Jan-23 10:30N 28°04' W 014°50'1224.8
2018-Jan-23 10:00N 28°06' W 015°04'1324.9
2018-Jan-23 09:30N 28°07' W 015°18'713.5
2018-Jan-23 09:00N 28°09' W 015°25'0 0.5
2018-Jan-23 08:30N 28°09' W 015°25'918.6
2018-Jan-23 08:00N 28°06' W 015°15'1733.7
2018-Jan-23 07:30N 28°04' W 014°56'9 0.9
2018-Jan-22 21:18N 28°03' W 014°46'929.5
2018-Jan-22 21:00N 28°04' W 014°56'1529.5
2018-Jan-22 20:30N 28°06' W 015°12'1122.8
2018-Jan-22 20:00N 28°08' W 015°25'1 1.2
2018-Jan-22 19:30N 28°09' W 015°25'0 0.0
2018-Jan-22 19:00N 28°09' W 015°25'511.1
2018-Jan-22 18:31N 28°06' W 015°20'1733.9
2018-Jan-22 18:00N 28°03' W 015°01'20 9.1
2018-Jan-22 15:47N 28°02' W 014°38'1035.9
2018-Jan-22 15:30N 28°03' W 014°49'1835.9
2018-Jan-22 15:00N 28°05' W 015°09'1426.0
2018-Jan-22 14:27N 28°09' W 015°25'0 0.1
2018-Jan-22 14:00N 28°09' W 015°25'0 0.0
2018-Jan-22 13:30N 28°09' W 015°25'2 4.0
2018-Jan-22 13:01N 28°07' W 015°24'1835.7
2018-Jan-22 12:30N 28°05' W 015°04'1836.1
2018-Jan-22 12:00N 28°03' W 014°44'1933.3
2018-Jan-22 11:25N 28°03' W 014°22'0 0.1
2018-Jan-22 10:56N 28°03' W 014°22'920.9
2018-Jan-22 10:30N 28°02' W 014°32'1632.5
2018-Jan-22 10:00N 28°03' W 014°50'1632.8
2018-Jan-22 09:30N 28°05' W 015°09'1529.5
2018-Jan-22 09:00N 28°08' W 015°25'1 2.0
2018-Jan-22 08:30N 28°09' W 015°25'4 8.2
2018-Jan-22 08:01N 28°07' W 015°21'1835.4
2018-Jan-22 07:30N 28°04' W 015°01'2035.6
2018-Jan-22 06:56N 28°02' W 014°38'1532.9
2018-Jan-22 06:30N 28°03' W 014°22'0 0.5
2018-Jan-22 06:00N 28°03' W 014°22'0 0.0
2018-Jan-22 05:30N 28°03' W 014°22'0 0.0
2018-Jan-22 05:00N 28°03' W 014°22'0 0.0
2018-Jan-22 04:30N 28°03' W 014°22'0 0.0
2018-Jan-22 03:59N 28°03' W 014°22'0 0.0
2018-Jan-22 03:30N 28°03' W 014°22'0 0.0
2018-Jan-22 03:00N 28°03' W 014°22'0 0.0
2018-Jan-22 02:30N 28°03' W 014°22'0 0.0
2018-Jan-22 02:00N 28°03' W 014°22'0 0.0
2018-Jan-22 01:26N 28°03' W 014°22'0 0.0
2018-Jan-22 01:00N 28°03' W 014°22'0 0.0
2018-Jan-22 00:30N 28°03' W 014°22'0 0.0
2018-Jan-22 00:00N 28°03' W 014°22'0 0.0
2018-Jan-21 23:31N 28°03' W 014°22'0 0.0
2018-Jan-21 23:00N 28°03' W 014°22'0 0.0
2018-Jan-21 22:30N 28°03' W 014°22'1 1.7
2018-Jan-21 22:00N 28°03' W 014°23'1530.3
2018-Jan-21 21:30N 28°03' W 014°40'1530.3
2018-Jan-21 21:01N 28°04' W 014°57'1530.4
2018-Jan-21 20:30N 28°06' W 015°14'1020.3
2018-Jan-21 20:00N 28°09' W 015°25'0 0.0
2018-Jan-21 19:30N 28°09' W 015°25'3 6.2
2018-Jan-21 19:00N 28°07' W 015°23'1835.2
2018-Jan-21 18:30N 28°04' W 015°03'1835.5
2018-Jan-21 18:00N 28°03' W 014°43'1924.4
2018-Jan-21 17:14N 28°03' W 014°22'4 6.5
2018-Jan-21 16:35N 28°03' W 014°26'336.6
2018-Jan-21 16:31N 28°03' W 014°30'1835.5
2018-Jan-21 16:00N 28°04' W 014°50'1835.7
2018-Jan-21 15:30N 28°06' W 015°10'1427.3
2018-Jan-21 15:00N 28°08' W 015°25'1 1.0
2018-Jan-21 14:29N 28°09' W 015°25'917.9
2018-Jan-21 14:00N 28°07' W 015°16'1835.0
2018-Jan-21 13:30N 28°05' W 014°56'1733.3
2018-Jan-21 13:01N 28°02' W 014°38'7 0.5
2018-Jan-20 21:37N 28°02' W 014°29'432.7
2018-Jan-20 21:30N 28°02' W 014°34'1632.2
2018-Jan-20 21:00N 28°04' W 014°52'1632.3
2018-Jan-20 20:30N 28°06' W 015°10'1427.2
2018-Jan-20 20:00N 28°08' W 015°25'1 1.4
2018-Jan-20 19:28N 28°09' W 015°25'0 0.0
2018-Jan-20 19:00N 28°09' W 015°25'0 0.0
2018-Jan-20 18:29N 28°09' W 015°25'714.6
2018-Jan-20 18:01N 28°05' W 015°18'1632.6
2018-Jan-20 17:31N 28°04' W 014°60'14 2.3
2018-Jan-20 11:17N 27°56' W 014°46'931.7
2018-Jan-20 11:00N 27°59' W 014°56'1632.0
2018-Jan-20 10:30N 28°04' W 015°13'1223.6
2018-Jan-20 10:00N 28°09' W 015°25'0 0.2
2018-Jan-20 09:31N 28°09' W 015°25'1019.5
2018-Jan-20 09:01N 28°06' W 015°15'1632.3
2018-Jan-20 08:30N 28°04' W 014°56'9 0.8
2018-Jan-19 21:30N 27°59' W 014°48'1428.0
2018-Jan-19 21:00N 28°02' W 015°03'1428.1
2018-Jan-19 20:30N 28°06' W 015°19'713.1
2018-Jan-19 20:00N 28°09' W 015°25'0 0.0
2018-Jan-19 19:30N 28°09' W 015°25'3 5.8
2018-Jan-19 19:01N 28°07' W 015°23'1530.8
2018-Jan-19 18:30N 28°04' W 015°06'21 7.5
2018-Jan-19 15:45N 28°03' W 014°42'833.9
2018-Jan-19 15:30N 28°04' W 014°51'1733.7
2018-Jan-19 15:00N 28°07' W 015°10'1326.3
2018-Jan-19 14:30N 28°09' W 015°25'0 0.3
2018-Jan-19 13:59N 28°09' W 015°25'1 3.1
2018-Jan-19 13:30N 28°07' W 015°25'1632.7
2018-Jan-19 13:00N 28°03' W 015°07'22 9.4
2018-Jan-19 10:40N 27°57' W 014°43'528.9
2018-Jan-19 10:29N 27°57' W 014°49'1328.4
2018-Jan-19 10:01N 27°60' W 015°03'1529.5
2018-Jan-19 09:30N 28°05' W 015°19'612.2
2018-Jan-19 08:58N 28°09' W 015°25'0 0.3
2018-Jan-19 08:30N 28°09' W 015°25'1121.3
2018-Jan-19 08:00N 28°04' W 015°15'1632.5
2018-Jan-19 07:30N 28°02' W 014°56'11 1.1
2018-Jan-18 21:29N 27°60' W 014°44'1428.8
2018-Jan-18 21:00N 28°02' W 014°60'1529.2
2018-Jan-18 20:31N 28°05' W 015°16'918.3
2018-Jan-18 20:00N 28°09' W 015°25'0 0.0
2018-Jan-18 19:30N 28°09' W 015°25'0 0.0
2018-Jan-18 19:00N 28°09' W 015°25'1 1.5
2018-Jan-18 18:30N 28°08' W 015°25'1225.0
2018-Jan-18 18:00N 28°05' W 015°12'1530.2
2018-Jan-18 17:30N 28°03' W 014°55'16 2.3
2018-Jan-18 10:35N 28°02' W 014°37'334.5
2018-Jan-18 10:30N 28°02' W 014°40'1734.2
2018-Jan-18 10:00N 28°06' W 014°59'1631.7
2018-Jan-18 09:30N 28°08' W 015°17'8 8.2
2018-Jan-18 08:36N 28°09' W 015°25'1 8.7
2018-Jan-18 08:30N 28°08' W 015°25'1428.1
2018-Jan-18 08:00N 28°03' W 015°11'1631.9
2018-Jan-18 07:30N 28°00' W 014°53'  

Dump ship's entire track history